sensor_id;sensor_type;location;lat;lon;timestamp;temperature;humidity
63202;DHT22;49296;48.188;11.566;2022-08-21T00:00:40;17.57;83.82
63202;DHT22;49296;48.188;11.566;2022-08-21T00:03:09;17.62;83.71
63202;DHT22;49296;48.188;11.566;2022-08-21T00:05:39;17.57;83.88
63202;DHT22;49296;48.188;11.566;2022-08-21T00:08:07;17.66;83.50
63202;DHT22;49296;48.188;11.566;2022-08-21T00:10:33;17.64;83.57
63202;DHT22;49296;48.188;11.566;2022-08-21T00:13:04;17.60;83.49
63202;DHT22;49296;48.188;11.566;2022-08-21T00:15:31;17.49;83.89
63202;DHT22;49296;48.188;11.566;2022-08-21T00:18:02;17.59;83.64
63202;DHT22;49296;48.188;11.566;2022-08-21T00:20:30;17.49;83.54
63202;DHT22;49296;48.188;11.566;2022-08-21T00:23:00;17.42;83.67
63202;DHT22;49296;48.188;11.566;2022-08-21T00:25:26;17.54;83.50
63202;DHT22;49296;48.188;11.566;2022-08-21T00:27:54;17.43;83.87
63202;DHT22;49296;48.188;11.566;2022-08-21T00:30:25;17.51;83.18
63202;DHT22;49296;48.188;11.566;2022-08-21T00:32:55;17.51;83.19
63202;DHT22;49296;48.188;11.566;2022-08-21T00:35:25;17.56;83.09
63202;DHT22;49296;48.188;11.566;2022-08-21T00:37:58;17.38;83.25
63202;DHT22;49296;48.188;11.566;2022-08-21T00:40:27;17.35;83.35
63202;DHT22;49296;48.188;11.566;2022-08-21T00:42:57;17.39;83.21
63202;DHT22;49296;48.188;11.566;2022-08-21T00:45:23;17.39;83.16
63202;DHT22;49296;48.188;11.566;2022-08-21T00:47:50;17.39;83.08
63202;DHT22;49296;48.188;11.566;2022-08-21T00:50:17;17.36;82.98
63202;DHT22;49296;48.188;11.566;2022-08-21T00:52:48;17.43;82.52
63202;DHT22;49296;48.188;11.566;2022-08-21T00:55:17;17.26;83.09
63202;DHT22;49296;48.188;11.566;2022-08-21T00:57:44;17.36;82.85
63202;DHT22;49296;48.188;11.566;2022-08-21T01:00:13;17.28;82.96
63202;DHT22;49296;48.188;11.566;2022-08-21T01:02:40;17.30;82.87
63202;DHT22;49296;48.188;11.566;2022-08-21T01:05:07;17.23;83.07
63202;DHT22;49296;48.188;11.566;2022-08-21T01:07:34;17.33;82.63
63202;DHT22;49296;48.188;11.566;2022-08-21T01:10:01;17.36;82.58
63202;DHT22;49296;48.188;11.566;2022-08-21T01:12:31;17.43;82.11
63202;DHT22;49296;48.188;11.566;2022-08-21T01:14:58;17.30;82.50
63202;DHT22;49296;48.188;11.566;2022-08-21T01:17:25;17.35;82.39
63202;DHT22;49296;48.188;11.566;2022-08-21T01:19:53;17.33;82.44
63202;DHT22;49296;48.188;11.566;2022-08-21T01:22:21;17.26;82.47
63202;DHT22;49296;48.188;11.566;2022-08-21T01:24:47;17.22;82.35
63202;DHT22;49296;48.188;11.566;2022-08-21T01:27:17;17.26;82.32
63202;DHT22;49296;48.188;11.566;2022-08-21T01:29:48;17.08;82.72
63202;DHT22;49296;48.188;11.566;2022-08-21T01:32:17;17.11;82.58
63202;DHT22;49296;48.188;11.566;2022-08-21T01:34:44;17.07;82.93
63202;DHT22;49296;48.188;11.566;2022-08-21T01:37:14;17.04;82.77
63202;DHT22;49296;48.188;11.566;2022-08-21T01:42:29;17.05;82.42
63202;DHT22;49296;48.188;11.566;2022-08-21T01:44:57;17.04;82.40
63202;DHT22;49296;48.188;11.566;2022-08-21T01:47:23;17.07;82.29
63202;DHT22;49296;48.188;11.566;2022-08-21T01:49:50;17.10;82.16
63202;DHT22;49296;48.188;11.566;2022-08-21T01:52:17;17.00;82.14
63202;DHT22;49296;48.188;11.566;2022-08-21T01:54:45;17.00;82.40
63202;DHT22;49296;48.188;11.566;2022-08-21T01:57:12;16.87;82.74
63202;DHT22;49296;48.188;11.566;2022-08-21T01:59:40;16.78;82.81
63202;DHT22;49296;48.188;11.566;2022-08-21T02:02:09;16.77;82.95
63202;DHT22;49296;48.188;11.566;2022-08-21T02:04:36;16.80;82.88
63202;DHT22;49296;48.188;11.566;2022-08-21T02:07:03;16.77;82.70
63202;DHT22;49296;48.188;11.566;2022-08-21T02:09:29;16.81;82.40
63202;DHT22;49296;48.188;11.566;2022-08-21T02:11:56;16.70;82.88
63202;DHT22;49296;48.188;11.566;2022-08-21T02:14:23;16.74;82.60
63202;DHT22;49296;48.188;11.566;2022-08-21T02:16:51;16.73;82.55
63202;DHT22;49296;48.188;11.566;2022-08-21T02:19:18;16.76;82.65
63202;DHT22;49296;48.188;11.566;2022-08-21T02:21:44;16.60;82.82
63202;DHT22;49296;48.188;11.566;2022-08-21T02:24:11;16.74;82.49
63202;DHT22;49296;48.188;11.566;2022-08-21T02:26:37;16.71;82.66
63202;DHT22;49296;48.188;11.566;2022-08-21T02:29:08;16.69;82.68
63202;DHT22;49296;48.188;11.566;2022-08-21T02:31:34;16.69;82.47
63202;DHT22;49296;48.188;11.566;2022-08-21T02:34:02;16.66;82.37
63202;DHT22;49296;48.188;11.566;2022-08-21T02:36:31;16.71;82.14
63202;DHT22;49296;48.188;11.566;2022-08-21T02:38:58;16.60;82.54
63202;DHT22;49296;48.188;11.566;2022-08-21T02:41:24;16.77;82.13
63202;DHT22;49296;48.188;11.566;2022-08-21T02:43:51;16.66;82.34
63202;DHT22;49296;48.188;11.566;2022-08-21T02:46:19;16.64;82.46
63202;DHT22;49296;48.188;11.566;2022-08-21T02:48:46;16.56;82.63
63202;DHT22;49296;48.188;11.566;2022-08-21T02:51:15;16.61;82.59
63202;DHT22;49296;48.188;11.566;2022-08-21T02:53:42;16.59;82.37
63202;DHT22;49296;48.188;11.566;2022-08-21T02:56:10;16.57;82.45
63202;DHT22;49296;48.188;11.566;2022-08-21T02:58:38;16.53;82.66
63202;DHT22;49296;48.188;11.566;2022-08-21T03:01:08;16.56;82.24
63202;DHT22;49296;48.188;11.566;2022-08-21T03:03:35;16.74;81.85
63202;DHT22;49296;48.188;11.566;2022-08-21T03:06:02;16.70;81.89
63202;DHT22;49296;48.188;11.566;2022-08-21T03:08:30;16.64;82.24
63202;DHT22;49296;48.188;11.566;2022-08-21T03:10:56;16.63;82.25
63202;DHT22;49296;48.188;11.566;2022-08-21T03:13:26;16.69;82.16
63202;DHT22;49296;48.188;11.566;2022-08-21T03:15:52;16.57;82.27
63202;DHT22;49296;48.188;11.566;2022-08-21T03:18:21;16.52;82.47
63202;DHT22;49296;48.188;11.566;2022-08-21T03:20:51;16.50;82.47
63202;DHT22;49296;48.188;11.566;2022-08-21T03:23:17;16.56;82.25
63202;DHT22;49296;48.188;11.566;2022-08-21T03:25:46;16.49;82.29
63202;DHT22;49296;48.188;11.566;2022-08-21T03:28:15;16.45;82.82
63202;DHT22;49296;48.188;11.566;2022-08-21T03:30:42;16.49;82.41
63202;DHT22;49296;48.188;11.566;2022-08-21T03:33:09;16.55;82.20
63202;DHT22;49296;48.188;11.566;2022-08-21T03:35:35;16.70;81.77
63202;DHT22;49296;48.188;11.566;2022-08-21T03:38:02;16.59;82.05
63202;DHT22;49296;48.188;11.566;2022-08-21T03:40:28;16.55;82.05
63202;DHT22;49296;48.188;11.566;2022-08-21T03:42:56;16.55;82.13
63202;DHT22;49296;48.188;11.566;2022-08-21T03:45:24;16.53;82.26
63202;DHT22;49296;48.188;11.566;2022-08-21T03:47:51;16.43;82.45
63202;DHT22;49296;48.188;11.566;2022-08-21T03:50:18;16.50;82.42
63202;DHT22;49296;48.188;11.566;2022-08-21T03:52:45;16.46;82.31
63202;DHT22;49296;48.188;11.566;2022-08-21T03:55:11;16.36;82.71
63202;DHT22;49296;48.188;11.566;2022-08-21T03:57:38;16.41;82.54
63202;DHT22;49296;48.188;11.566;2022-08-21T04:00:07;16.42;82.43
63202;DHT22;49296;48.188;11.566;2022-08-21T04:02:34;16.46;82.12
63202;DHT22;49296;48.188;11.566;2022-08-21T04:05:01;16.50;81.96
63202;DHT22;49296;48.188;11.566;2022-08-21T04:07:28;16.48;81.97
63202;DHT22;49296;48.188;11.566;2022-08-21T04:09:54;16.56;81.48
63202;DHT22;49296;48.188;11.566;2022-08-21T04:12:21;16.50;81.79
63202;DHT22;49296;48.188;11.566;2022-08-21T04:14:47;16.45;81.89
63202;DHT22;49296;48.188;11.566;2022-08-21T04:17:18;16.42;81.79
63202;DHT22;49296;48.188;11.566;2022-08-21T04:19:48;16.43;81.87
63202;DHT22;49296;48.188;11.566;2022-08-21T04:22:15;16.42;81.96
63202;DHT22;49296;48.188;11.566;2022-08-21T04:24:41;16.45;81.70
63202;DHT22;49296;48.188;11.566;2022-08-21T04:27:08;16.46;81.41
63202;DHT22;49296;48.188;11.566;2022-08-21T04:29:34;16.49;81.63
63202;DHT22;49296;48.188;11.566;2022-08-21T04:32:04;16.42;81.80
63202;DHT22;49296;48.188;11.566;2022-08-21T04:34:32;16.39;81.80
63202;DHT22;49296;48.188;11.566;2022-08-21T04:36:59;16.46;81.67
63202;DHT22;49296;48.188;11.566;2022-08-21T04:39:25;16.41;81.80
63202;DHT22;49296;48.188;11.566;2022-08-21T04:41:52;16.39;81.63
63202;DHT22;49296;48.188;11.566;2022-08-21T04:44:18;16.36;81.76
63202;DHT22;49296;48.188;11.566;2022-08-21T04:46:45;16.25;82.04
63202;DHT22;49296;48.188;11.566;2022-08-21T04:49:12;16.33;81.70
63202;DHT22;49296;48.188;11.566;2022-08-21T04:51:39;16.33;81.62
63202;DHT22;49296;48.188;11.566;2022-08-21T04:54:08;16.25;81.93
63202;DHT22;49296;48.188;11.566;2022-08-21T04:56:36;16.16;82.29
63202;DHT22;49296;48.188;11.566;2022-08-21T04:59:04;16.22;81.85
63202;DHT22;49296;48.188;11.566;2022-08-21T05:01:32;16.25;81.78
63202;DHT22;49296;48.188;11.566;2022-08-21T05:04:00;16.29;81.72
63202;DHT22;49296;48.188;11.566;2022-08-21T05:06:27;16.39;81.65
63202;DHT22;49296;48.188;11.566;2022-08-21T05:08:55;16.41;81.47
63202;DHT22;49296;48.188;11.566;2022-08-21T05:11:22;16.36;81.25
63202;DHT22;49296;48.188;11.566;2022-08-21T05:13:49;16.43;81.32
63202;DHT22;49296;48.188;11.566;2022-08-21T05:16:16;16.36;81.41
63202;DHT22;49296;48.188;11.566;2022-08-21T05:18:42;16.29;81.64
63202;DHT22;49296;48.188;11.566;2022-08-21T05:21:09;16.36;81.38
63202;DHT22;49296;48.188;11.566;2022-08-21T05:23:35;16.42;81.26
63202;DHT22;49296;48.188;11.566;2022-08-21T05:26:03;16.41;81.07
63202;DHT22;49296;48.188;11.566;2022-08-21T05:28:30;16.48;80.98
63202;DHT22;49296;48.188;11.566;2022-08-21T05:30:57;16.45;81.10
63202;DHT22;49296;48.188;11.566;2022-08-21T05:33:23;16.43;81.29
63202;DHT22;49296;48.188;11.566;2022-08-21T05:35:50;16.41;81.42
63202;DHT22;49296;48.188;11.566;2022-08-21T05:38:17;16.52;81.39
63202;DHT22;49296;48.188;11.566;2022-08-21T05:40:44;16.59;80.91
63202;DHT22;49296;48.188;11.566;2022-08-21T05:43:11;16.66;80.56
63202;DHT22;49296;48.188;11.566;2022-08-21T05:45:38;16.74;80.62
63202;DHT22;49296;48.188;11.566;2022-08-21T05:48:05;16.85;80.09
63202;DHT22;49296;48.188;11.566;2022-08-21T05:50:32;16.88;80.14
63202;DHT22;49296;48.188;11.566;2022-08-21T05:52:58;16.87;80.24
63202;DHT22;49296;48.188;11.566;2022-08-21T05:55:25;16.92;80.20
63202;DHT22;49296;48.188;11.566;2022-08-21T05:57:51;17.01;79.67
63202;DHT22;49296;48.188;11.566;2022-08-21T06:00:19;17.03;79.75
63202;DHT22;49296;48.188;11.566;2022-08-21T06:02:48;17.01;80.20
63202;DHT22;49296;48.188;11.566;2022-08-21T06:05:14;17.11;79.76
63202;DHT22;49296;48.188;11.566;2022-08-21T06:07:41;17.11;79.86
63202;DHT22;49296;48.188;11.566;2022-08-21T06:10:07;17.01;80.43
63202;DHT22;49296;48.188;11.566;2022-08-21T06:12:34;17.10;79.97
63202;DHT22;49296;48.188;11.566;2022-08-21T06:15:00;17.07;80.39
63202;DHT22;49296;48.188;11.566;2022-08-21T06:17:28;17.18;79.73
63202;DHT22;49296;48.188;11.566;2022-08-21T06:19:54;17.26;79.63
63202;DHT22;49296;48.188;11.566;2022-08-21T06:22:21;17.33;79.42
63202;DHT22;49296;48.188;11.566;2022-08-21T06:24:48;17.56;78.85
63202;DHT22;49296;48.188;11.566;2022-08-21T06:27:14;17.50;79.05
63202;DHT22;49296;48.188;11.566;2022-08-21T06:29:42;17.30;79.53
63202;DHT22;49296;48.188;11.566;2022-08-21T06:32:10;17.36;79.54
63202;DHT22;49296;48.188;11.566;2022-08-21T06:34:38;17.39;79.17
63202;DHT22;49296;48.188;11.566;2022-08-21T06:37:05;17.46;79.48
63202;DHT22;49296;48.188;11.566;2022-08-21T06:39:31;17.64;79.18
63202;DHT22;49296;48.188;11.566;2022-08-21T06:41:58;17.71;78.37
63202;DHT22;49296;48.188;11.566;2022-08-21T06:44:24;17.75;77.70
63202;DHT22;49296;48.188;11.566;2022-08-21T06:46:51;17.85;77.22
63202;DHT22;49296;48.188;11.566;2022-08-21T06:49:17;17.90;76.84
63202;DHT22;49296;48.188;11.566;2022-08-21T06:51:45;17.97;76.95
63202;DHT22;49296;48.188;11.566;2022-08-21T06:54:11;18.04;75.27
63202;DHT22;49296;48.188;11.566;2022-08-21T06:56:38;18.11;75.28
63202;DHT22;49296;48.188;11.566;2022-08-21T06:59:04;18.01;75.23
63202;DHT22;49296;48.188;11.566;2022-08-21T07:01:31;18.02;75.34
63202;DHT22;49296;48.188;11.566;2022-08-21T07:03:58;18.05;74.53
63202;DHT22;49296;48.188;11.566;2022-08-21T07:06:24;18.04;74.78
63202;DHT22;49296;48.188;11.566;2022-08-21T07:08:52;18.06;74.70
63202;DHT22;49296;48.188;11.566;2022-08-21T07:11:20;18.25;74.71
63202;DHT22;49296;48.188;11.566;2022-08-21T07:13:46;18.35;74.86
63202;DHT22;49296;48.188;11.566;2022-08-21T07:16:13;18.33;73.45
63202;DHT22;49296;48.188;11.566;2022-08-21T07:18:40;18.29;74.15
63202;DHT22;49296;48.188;11.566;2022-08-21T07:21:06;18.28;73.94
63202;DHT22;49296;48.188;11.566;2022-08-21T07:23:34;18.49;73.27
63202;DHT22;49296;48.188;11.566;2022-08-21T07:26:02;18.46;73.92
63202;DHT22;49296;48.188;11.566;2022-08-21T07:28:29;18.46;73.46
63202;DHT22;49296;48.188;11.566;2022-08-21T07:30:56;18.57;72.58
63202;DHT22;49296;48.188;11.566;2022-08-21T07:33:24;18.49;70.97
63202;DHT22;49296;48.188;11.566;2022-08-21T07:35:50;18.47;70.90
63202;DHT22;49296;48.188;11.566;2022-08-21T07:38:17;18.50;70.60
63202;DHT22;49296;48.188;11.566;2022-08-21T07:40:44;18.56;70.81
63202;DHT22;49296;48.188;11.566;2022-08-21T07:43:12;18.59;71.16
63202;DHT22;49296;48.188;11.566;2022-08-21T07:45:39;18.61;71.30
63202;DHT22;49296;48.188;11.566;2022-08-21T07:48:05;18.67;71.32
63202;DHT22;49296;48.188;11.566;2022-08-21T07:50:32;18.67;70.71
63202;DHT22;49296;48.188;11.566;2022-08-21T07:52:58;18.70;70.53
63202;DHT22;49296;48.188;11.566;2022-08-21T07:55:25;18.70;71.29
63202;DHT22;49296;48.188;11.566;2022-08-21T07:57:51;18.83;71.38
63202;DHT22;49296;48.188;11.566;2022-08-21T08:00:20;18.94;71.05
63202;DHT22;49296;48.188;11.566;2022-08-21T08:02:48;18.94;71.68
63202;DHT22;49296;48.188;11.566;2022-08-21T08:05:16;19.01;71.30
63202;DHT22;49296;48.188;11.566;2022-08-21T08:07:42;19.06;71.55
63202;DHT22;49296;48.188;11.566;2022-08-21T08:10:09;19.09;71.99
63202;DHT22;49296;48.188;11.566;2022-08-21T08:12:37;19.09;71.95
63202;DHT22;49296;48.188;11.566;2022-08-21T08:15:05;19.11;71.73
63202;DHT22;49296;48.188;11.566;2022-08-21T08:17:33;19.14;71.14
63202;DHT22;49296;48.188;11.566;2022-08-21T08:19:59;19.20;71.33
63202;DHT22;49296;48.188;11.566;2022-08-21T08:22:27;19.25;71.43
63202;DHT22;49296;48.188;11.566;2022-08-21T08:24:53;19.34;71.56
63202;DHT22;49296;48.188;11.566;2022-08-21T08:27:20;19.45;70.98
63202;DHT22;49296;48.188;11.566;2022-08-21T08:29:47;19.51;71.13
63202;DHT22;49296;48.188;11.566;2022-08-21T08:32:14;19.51;70.93
63202;DHT22;49296;48.188;11.566;2022-08-21T08:34:42;19.57;70.94
63202;DHT22;49296;48.188;11.566;2022-08-21T08:37:08;19.64;71.13
63202;DHT22;49296;48.188;11.566;2022-08-21T08:39:35;19.70;70.50
63202;DHT22;49296;48.188;11.566;2022-08-21T08:42:03;19.74;70.60
63202;DHT22;49296;48.188;11.566;2022-08-21T08:44:31;19.79;71.39
63202;DHT22;49296;48.188;11.566;2022-08-21T08:46:57;19.81;71.14
63202;DHT22;49296;48.188;11.566;2022-08-21T08:49:27;19.71;71.27
63202;DHT22;49296;48.188;11.566;2022-08-21T08:51:57;19.78;71.09
63202;DHT22;49296;48.188;11.566;2022-08-21T08:54:27;19.81;71.56
63202;DHT22;49296;48.188;11.566;2022-08-21T08:56:57;19.96;71.33
63202;DHT22;49296;48.188;11.566;2022-08-21T08:59:25;20.04;71.70
63202;DHT22;49296;48.188;11.566;2022-08-21T09:01:52;20.04;70.90
63202;DHT22;49296;48.188;11.566;2022-08-21T09:04:20;20.04;70.28
63202;DHT22;49296;48.188;11.566;2022-08-21T09:09:37;20.19;70.59
63202;DHT22;49296;48.188;11.566;2022-08-21T09:12:07;20.29;71.11
63202;DHT22;49296;48.188;11.566;2022-08-21T09:14:43;20.32;70.74
63202;DHT22;49296;48.188;11.566;2022-08-21T09:17:13;20.39;70.90
63202;DHT22;49296;48.188;11.566;2022-08-21T09:19:48;20.48;70.71
63202;DHT22;49296;48.188;11.566;2022-08-21T09:22:19;20.36;70.68
63202;DHT22;49296;48.188;11.566;2022-08-21T09:24:53;20.48;71.35
63202;DHT22;49296;48.188;11.566;2022-08-21T09:27:22;20.47;70.76
63202;DHT22;49296;48.188;11.566;2022-08-21T09:29:49;20.53;70.65
63202;DHT22;49296;48.188;11.566;2022-08-21T09:32:18;20.63;70.84
63202;DHT22;49296;48.188;11.566;2022-08-21T09:34:54;20.77;70.73
63202;DHT22;49296;48.188;11.566;2022-08-21T09:37:21;20.71;68.86
63202;DHT22;49296;48.188;11.566;2022-08-21T09:39:47;20.81;69.32
63202;DHT22;49296;48.188;11.566;2022-08-21T09:42:21;20.92;69.82
63202;DHT22;49296;48.188;11.566;2022-08-21T09:44:48;21.03;69.55
63202;DHT22;49296;48.188;11.566;2022-08-21T09:47:18;21.18;69.65
63202;DHT22;49296;48.188;11.566;2022-08-21T09:49:45;21.29;68.44
63202;DHT22;49296;48.188;11.566;2022-08-21T09:52:15;21.32;68.37
63202;DHT22;49296;48.188;11.566;2022-08-21T09:54:42;21.23;67.56
63202;DHT22;49296;48.188;11.566;2022-08-21T09:57:12;21.40;67.85
63202;DHT22;49296;48.188;11.566;2022-08-21T10:00:06;21.58;67.40
63202;DHT22;49296;48.188;11.566;2022-08-21T10:02:34;21.82;67.00
63202;DHT22;49296;48.188;11.566;2022-08-21T10:05:06;21.87;67.83
63202;DHT22;49296;48.188;11.566;2022-08-21T10:07:35;21.87;67.59
63202;DHT22;49296;48.188;11.566;2022-08-21T10:10:03;21.73;66.74
63202;DHT22;49296;48.188;11.566;2022-08-21T10:12:32;21.62;67.16
63202;DHT22;49296;48.188;11.566;2022-08-21T10:15:05;21.64;67.29
63202;DHT22;49296;48.188;11.566;2022-08-21T10:17:37;21.51;68.11
63202;DHT22;49296;48.188;11.566;2022-08-21T10:20:06;21.44;68.32
63202;DHT22;49296;48.188;11.566;2022-08-21T10:22:36;21.53;67.99
63202;DHT22;49296;48.188;11.566;2022-08-21T10:25:07;21.53;68.18
63202;DHT22;49296;48.188;11.566;2022-08-21T10:27:37;21.43;68.93
63202;DHT22;49296;48.188;11.566;2022-08-21T10:30:08;21.44;69.52
63202;DHT22;49296;48.188;11.566;2022-08-21T10:32:38;21.42;69.08
63202;DHT22;49296;48.188;11.566;2022-08-21T10:35:09;21.42;69.32
63202;DHT22;49296;48.188;11.566;2022-08-21T10:37:40;21.29;69.07
63202;DHT22;49296;48.188;11.566;2022-08-21T10:40:11;21.36;69.05
63202;DHT22;49296;48.188;11.566;2022-08-21T10:42:41;21.40;69.07
63202;DHT22;49296;48.188;11.566;2022-08-21T10:45:19;21.54;68.52
63202;DHT22;49296;48.188;11.566;2022-08-21T10:47:49;21.82;67.17
63202;DHT22;49296;48.188;11.566;2022-08-21T10:50:19;21.84;66.77
63202;DHT22;49296;48.188;11.566;2022-08-21T10:52:57;21.82;65.74
63202;DHT22;49296;48.188;11.566;2022-08-21T10:55:31;21.79;65.65
63202;DHT22;49296;48.188;11.566;2022-08-21T10:58:02;21.74;66.62
63202;DHT22;49296;48.188;11.566;2022-08-21T11:00:32;21.64;66.94
63202;DHT22;49296;48.188;11.566;2022-08-21T11:03:01;21.67;67.56
63202;DHT22;49296;48.188;11.566;2022-08-21T11:05:31;21.74;68.02
63202;DHT22;49296;48.188;11.566;2022-08-21T11:08:02;21.78;66.84
63202;DHT22;49296;48.188;11.566;2022-08-21T11:10:31;21.70;66.11
63202;DHT22;49296;48.188;11.566;2022-08-21T11:13:00;21.79;66.49
63202;DHT22;49296;48.188;11.566;2022-08-21T11:15:33;21.85;64.59
63202;DHT22;49296;48.188;11.566;2022-08-21T11:18:04;21.91;63.47
63202;DHT22;49296;48.188;11.566;2022-08-21T11:20:38;22.08;63.70
63202;DHT22;49296;48.188;11.566;2022-08-21T11:23:07;22.28;61.39
63202;DHT22;49296;48.188;11.566;2022-08-21T11:25:36;22.43;60.17
63202;DHT22;49296;48.188;11.566;2022-08-21T11:28:05;22.46;59.10
63202;DHT22;49296;48.188;11.566;2022-08-21T11:30:38;22.72;59.68
63202;DHT22;49296;48.188;11.566;2022-08-21T11:33:10;22.92;60.18
63202;DHT22;49296;48.188;11.566;2022-08-21T11:35:43;23.09;58.75
63202;DHT22;49296;48.188;11.566;2022-08-21T11:40:58;23.23;56.98
63202;DHT22;49296;48.188;11.566;2022-08-21T11:43:30;23.44;55.67
63202;DHT22;49296;48.188;11.566;2022-08-21T11:46:03;23.43;54.95
63202;DHT22;49296;48.188;11.566;2022-08-21T11:48:43;23.42;56.92
63202;DHT22;49296;48.188;11.566;2022-08-21T11:51:11;23.40;56.59
63202;DHT22;49296;48.188;11.566;2022-08-21T11:53:39;23.18;54.49
63202;DHT22;49296;48.188;11.566;2022-08-21T11:56:11;23.50;54.35
63202;DHT22;49296;48.188;11.566;2022-08-21T11:58:38;23.72;54.67
63202;DHT22;49296;48.188;11.566;2022-08-21T12:01:08;23.90;56.16
63202;DHT22;49296;48.188;11.566;2022-08-21T12:03:36;23.94;53.72
63202;DHT22;49296;48.188;11.566;2022-08-21T12:06:05;24.17;55.04
63202;DHT22;49296;48.188;11.566;2022-08-21T12:08:32;24.20;53.24
63202;DHT22;49296;48.188;11.566;2022-08-21T12:11:00;23.82;53.94
63202;DHT22;49296;48.188;11.566;2022-08-21T12:13:28;24.01;53.53
63202;DHT22;49296;48.188;11.566;2022-08-21T12:16:04;23.79;53.88
63202;DHT22;49296;48.188;11.566;2022-08-21T12:18:32;23.60;53.37
63202;DHT22;49296;48.188;11.566;2022-08-21T12:21:00;23.47;53.92
63202;DHT22;49296;48.188;11.566;2022-08-21T12:23:29;23.44;52.34
63202;DHT22;49296;48.188;11.566;2022-08-21T12:26:01;23.49;52.83
63202;DHT22;49296;48.188;11.566;2022-08-21T12:28:28;23.19;52.88
63202;DHT22;49296;48.188;11.566;2022-08-21T12:30:56;23.12;53.55
63202;DHT22;49296;48.188;11.566;2022-08-21T12:33:24;23.81;51.40
63202;DHT22;49296;48.188;11.566;2022-08-21T12:35:53;24.23;50.12
63202;DHT22;49296;48.188;11.566;2022-08-21T12:38:28;24.50;51.32
63202;DHT22;49296;48.188;11.566;2022-08-21T12:40:55;24.67;49.69
63202;DHT22;49296;48.188;11.566;2022-08-21T12:43:24;24.89;48.17
63202;DHT22;49296;48.188;11.566;2022-08-21T12:45:51;25.10;47.63
63202;DHT22;49296;48.188;11.566;2022-08-21T12:48:18;25.27;47.94
63202;DHT22;49296;48.188;11.566;2022-08-21T12:50:48;25.36;48.31
63202;DHT22;49296;48.188;11.566;2022-08-21T12:53:19;24.50;48.85
63202;DHT22;49296;48.188;11.566;2022-08-21T12:55:48;24.99;48.50
63202;DHT22;49296;48.188;11.566;2022-08-21T12:58:18;25.44;47.95
63202;DHT22;49296;48.188;11.566;2022-08-21T13:00:47;25.67;47.05
63202;DHT22;49296;48.188;11.566;2022-08-21T13:03:14;26.00;45.11
63202;DHT22;49296;48.188;11.566;2022-08-21T13:05:42;26.24;45.55
63202;DHT22;49296;48.188;11.566;2022-08-21T13:08:09;26.64;45.41
63202;DHT22;49296;48.188;11.566;2022-08-21T13:10:38;26.67;43.79
63202;DHT22;49296;48.188;11.566;2022-08-21T13:13:06;27.14;45.13
63202;DHT22;49296;48.188;11.566;2022-08-21T13:15:34;27.51;44.23
63202;DHT22;49296;48.188;11.566;2022-08-21T13:18:02;27.77;41.72
63202;DHT22;49296;48.188;11.566;2022-08-21T13:20:29;28.13;40.94
63202;DHT22;49296;48.188;11.566;2022-08-21T13:22:56;27.91;41.77
63202;DHT22;49296;48.188;11.566;2022-08-21T13:25:25;27.85;41.74
63202;DHT22;49296;48.188;11.566;2022-08-21T13:28:00;28.00;41.61
63202;DHT22;49296;48.188;11.566;2022-08-21T13:30:27;26.91;43.17
63202;DHT22;49296;48.188;11.566;2022-08-21T13:32:56;26.78;44.16
63202;DHT22;49296;48.188;11.566;2022-08-21T13:35:24;27.23;43.86
63202;DHT22;49296;48.188;11.566;2022-08-21T13:37:51;27.93;43.82
63202;DHT22;49296;48.188;11.566;2022-08-21T13:40:20;28.39;42.06
63202;DHT22;49296;48.188;11.566;2022-08-21T13:42:50;28.67;40.74
63202;DHT22;49296;48.188;11.566;2022-08-21T13:45:22;28.40;41.19
63202;DHT22;49296;48.188;11.566;2022-08-21T13:47:49;28.28;41.73
63202;DHT22;49296;48.188;11.566;2022-08-21T13:50:18;28.79;41.17
63202;DHT22;49296;48.188;11.566;2022-08-21T13:52:53;28.74;41.29
63202;DHT22;49296;48.188;11.566;2022-08-21T13:55:20;29.31;39.87
63202;DHT22;49296;48.188;11.566;2022-08-21T13:57:47;29.68;39.88
63202;DHT22;49296;48.188;11.566;2022-08-21T14:00:15;30.06;39.91
63202;DHT22;49296;48.188;11.566;2022-08-21T14:02:46;30.14;38.36
63202;DHT22;49296;48.188;11.566;2022-08-21T14:05:15;29.85;37.67
63202;DHT22;49296;48.188;11.566;2022-08-21T14:07:42;30.30;36.73
63202;DHT22;49296;48.188;11.566;2022-08-21T14:10:11;30.57;36.16
63202;DHT22;49296;48.188;11.566;2022-08-21T14:12:40;30.83;36.20
63202;DHT22;49296;48.188;11.566;2022-08-21T14:15:08;29.98;36.77
63202;DHT22;49296;48.188;11.566;2022-08-21T14:17:37;30.48;37.12
63202;DHT22;49296;48.188;11.566;2022-08-21T14:20:07;30.57;36.04
63202;DHT22;49296;48.188;11.566;2022-08-21T14:22:36;30.34;35.92
63202;DHT22;49296;48.188;11.566;2022-08-21T14:25:04;29.57;37.28
63202;DHT22;49296;48.188;11.566;2022-08-21T14:27:31;29.05;38.14
63202;DHT22;49296;48.188;11.566;2022-08-21T14:29:59;28.88;38.85
63202;DHT22;49296;48.188;11.566;2022-08-21T14:32:27;29.06;38.14
63202;DHT22;49296;48.188;11.566;2022-08-21T14:34:54;29.75;37.37
63202;DHT22;49296;48.188;11.566;2022-08-21T14:37:23;29.58;38.23
63202;DHT22;49296;48.188;11.566;2022-08-21T14:39:50;28.75;38.95
63202;DHT22;49296;48.188;11.566;2022-08-21T14:42:17;28.37;39.18
63202;DHT22;49296;48.188;11.566;2022-08-21T14:44:43;29.16;38.91
63202;DHT22;49296;48.188;11.566;2022-08-21T14:47:10;29.61;38.55
63202;DHT22;49296;48.188;11.566;2022-08-21T14:49:36;29.22;38.48
63202;DHT22;49296;48.188;11.566;2022-08-21T14:52:03;29.20;38.05
63202;DHT22;49296;48.188;11.566;2022-08-21T14:54:31;28.68;38.54
63202;DHT22;49296;48.188;11.566;2022-08-21T14:56:58;28.57;39.45
63202;DHT22;49296;48.188;11.566;2022-08-21T14:59:25;28.74;39.43
63202;DHT22;49296;48.188;11.566;2022-08-21T15:01:52;29.26;39.02
63202;DHT22;49296;48.188;11.566;2022-08-21T15:04:18;28.68;37.90
63202;DHT22;49296;48.188;11.566;2022-08-21T15:06:44;27.74;39.30
63202;DHT22;49296;48.188;11.566;2022-08-21T15:09:11;27.41;39.77
63202;DHT22;49296;48.188;11.566;2022-08-21T15:11:39;28.03;39.98
63202;DHT22;49296;48.188;11.566;2022-08-21T15:14:06;28.34;39.16
63202;DHT22;49296;48.188;11.566;2022-08-21T15:16:33;29.02;38.60
63202;DHT22;49296;48.188;11.566;2022-08-21T15:19:01;29.17;37.89
63202;DHT22;49296;48.188;11.566;2022-08-21T15:21:28;29.17;37.30
63202;DHT22;49296;48.188;11.566;2022-08-21T15:23:54;29.50;37.14
63202;DHT22;49296;48.188;11.566;2022-08-21T15:26:20;29.43;36.22
63202;DHT22;49296;48.188;11.566;2022-08-21T15:28:49;29.67;35.98